createdAt,value
2019-03-31T00:01:08.050Z,10.50
2019-03-31T00:03:31.963Z,10.60
2019-03-31T00:06:00.490Z,10.70
2019-03-31T00:08:29.419Z,10.80
2019-03-31T00:11:00.511Z,10.80
2019-03-31T00:13:28.408Z,10.70
2019-03-31T00:15:57.196Z,10.60
2019-03-31T00:18:25.788Z,10.50
2019-03-31T00:20:54.418Z,10.50
2019-03-31T00:23:22.954Z,10.60
2019-03-31T00:25:52.261Z,10.70
2019-03-31T00:28:20.878Z,10.90
2019-03-31T00:30:49.797Z,10.90
2019-03-31T00:33:18.488Z,10.90
2019-03-31T00:35:47.050Z,11.00
2019-03-31T00:38:15.566Z,10.80
2019-03-31T00:40:44.502Z,10.80
2019-03-31T00:43:13.035Z,10.90
2019-03-31T00:45:41.548Z,10.80
2019-03-31T00:48:10.154Z,10.80
2019-03-31T00:50:38.772Z,10.70
2019-03-31T00:53:07.337Z,10.60
2019-03-31T00:55:35.969Z,10.50
2019-03-31T00:58:04.586Z,10.50
2019-03-31T01:00:46.813Z,10.50
2019-03-31T01:03:16.265Z,10.60
2019-03-31T01:05:46.129Z,10.70
2019-03-31T01:08:15.800Z,10.70
2019-03-31T01:10:44.491Z,10.50
2019-03-31T01:13:13.550Z,10.30
2019-03-31T01:15:42.092Z,10.20
2019-03-31T01:18:11.410Z,10.30
2019-03-31T01:20:40.129Z,10.30
2019-03-31T01:23:09.198Z,10.00
2019-03-31T01:25:37.852Z,9.80
2019-03-31T01:28:06.490Z,9.70
2019-03-31T01:30:35.237Z,9.70
2019-03-31T01:33:03.873Z,9.60
2019-03-31T01:35:32.408Z,9.50
2019-03-31T01:38:00.999Z,9.30
2019-03-31T01:40:29.739Z,9.40
2019-03-31T01:42:58.487Z,9.50
2019-03-31T01:45:27.131Z,9.50
2019-03-31T01:47:55.890Z,9.40
2019-03-31T01:50:24.826Z,9.40
2019-03-31T01:52:53.450Z,9.40
2019-03-31T01:55:22.220Z,9.30
2019-03-31T01:57:50.801Z,9.50
2019-03-31T02:00:27.213Z,9.50
2019-03-31T02:02:55.829Z,9.50
2019-03-31T02:05:24.555Z,9.70
2019-03-31T02:07:53.151Z,9.80
2019-03-31T02:10:21.748Z,9.90
2019-03-31T02:12:50.235Z,9.90
2019-03-31T02:15:18.913Z,9.90
2019-03-31T02:17:47.468Z,9.70
2019-03-31T02:20:16.137Z,9.70
2019-03-31T02:22:44.668Z,9.70
2019-03-31T02:25:13.365Z,9.60
2019-03-31T02:27:41.905Z,9.60
2019-03-31T02:30:10.999Z,9.60
2019-03-31T02:32:39.592Z,9.60
2019-03-31T02:35:08.292Z,9.60
2019-03-31T02:37:36.946Z,9.50
2019-03-31T02:40:07.054Z,9.30
2019-03-31T02:42:35.602Z,9.30
2019-03-31T02:45:07.773Z,9.30
2019-03-31T02:47:36.356Z,9.30
2019-03-31T02:50:06.257Z,9.20
2019-03-31T02:52:34.902Z,9.20
2019-03-31T02:55:03.632Z,9.20
2019-03-31T02:57:33.069Z,9.10
2019-03-31T03:00:02.805Z,9.10
2019-03-31T03:02:41.893Z,9.00
2019-03-31T03:05:18.929Z,9.00
2019-03-31T03:07:37.472Z,8.90
2019-03-31T03:10:07.048Z,8.80
2019-03-31T03:12:37.438Z,8.70
2019-03-31T03:15:06.516Z,8.70
2019-03-31T03:17:35.185Z,8.80
2019-03-31T03:20:05.117Z,9.00
2019-03-31T03:22:33.855Z,8.90
2019-03-31T03:25:02.471Z,8.90
2019-03-31T03:27:31.138Z,8.90
2019-03-31T03:30:00.253Z,8.90
2019-03-31T03:32:29.421Z,8.90
2019-03-31T03:34:57.945Z,8.90
2019-03-31T03:37:26.582Z,9.00
2019-03-31T03:39:55.206Z,9.10
2019-03-31T03:42:24.145Z,9.10
2019-03-31T03:44:52.781Z,9.00
2019-03-31T03:47:21.355Z,9.00
2019-03-31T03:49:49.863Z,9.00
2019-03-31T03:52:18.480Z,9.00
2019-03-31T03:54:47.006Z,9.00
2019-03-31T03:57:15.597Z,9.10
2019-03-31T03:59:44.205Z,9.00
2019-03-31T04:02:13.175Z,9.00
2019-03-31T04:04:41.830Z,8.90
2019-03-31T04:07:10.499Z,8.90
2019-03-31T04:09:39.163Z,8.90
2019-03-31T04:12:08.158Z,8.90
2019-03-31T04:14:36.855Z,8.90
2019-03-31T04:17:05.568Z,8.90
2019-03-31T04:19:34.408Z,8.90
2019-03-31T04:22:03.125Z,8.80
2019-03-31T04:24:33.426Z,8.70
2019-03-31T04:27:02.232Z,8.60
2019-03-31T04:29:31.300Z,8.70
2019-03-31T04:31:59.874Z,8.70
2019-03-31T04:34:28.601Z,8.70
2019-03-31T04:36:57.143Z,8.70
2019-03-31T04:39:25.754Z,8.60
2019-03-31T04:41:54.293Z,8.70
2019-03-31T04:44:22.826Z,8.70
2019-03-31T04:46:51.415Z,8.70
2019-03-31T04:49:19.964Z,8.80
2019-03-31T04:51:48.542Z,8.80
2019-03-31T04:54:17.094Z,8.80
2019-03-31T04:56:45.737Z,8.80
2019-03-31T04:59:14.326Z,8.80
2019-03-31T05:01:43.245Z,8.90
2019-03-31T05:04:11.839Z,8.90
2019-03-31T05:06:40.464Z,9.10
2019-03-31T05:09:09.074Z,9.10
2019-03-31T05:11:37.623Z,9.20
2019-03-31T05:14:07.119Z,9.20
2019-03-31T05:16:36.123Z,9.20
2019-03-31T05:19:04.824Z,9.30
2019-03-31T05:21:33.446Z,9.30
2019-03-31T05:24:02.137Z,9.30
2019-03-31T05:26:30.670Z,9.40
2019-03-31T05:28:59.265Z,9.30
2019-03-31T05:31:27.833Z,9.30
2019-03-31T05:33:56.551Z,9.30
2019-03-31T05:36:25.611Z,9.30
2019-03-31T05:38:54.223Z,9.10
2019-03-31T05:41:22.903Z,9.00
2019-03-31T05:44:04.786Z,9.00
2019-03-31T05:46:21.811Z,9.00
2019-03-31T05:48:50.417Z,9.00
2019-03-31T05:51:19.351Z,9.00
2019-03-31T05:53:47.932Z,8.90
2019-03-31T05:56:16.557Z,8.90
2019-03-31T05:58:45.080Z,8.90
2019-03-31T06:01:13.579Z,8.90
2019-03-31T06:03:42.081Z,8.80
2019-03-31T06:06:10.579Z,8.80
2019-03-31T06:08:39.193Z,8.80
2019-03-31T06:11:07.807Z,8.70
2019-03-31T06:13:36.677Z,8.70
2019-03-31T06:16:05.791Z,8.80
2019-03-31T06:18:34.360Z,8.70
2019-03-31T06:21:02.961Z,8.70
2019-03-31T06:23:31.563Z,8.60
2019-03-31T06:26:00.275Z,8.60
2019-03-31T06:28:28.811Z,8.60
2019-03-31T06:30:57.413Z,8.60
2019-03-31T06:33:25.969Z,8.70
2019-03-31T06:35:54.499Z,8.70
2019-03-31T06:38:23.029Z,8.70
2019-03-31T06:40:53.216Z,8.70
2019-03-31T06:43:21.745Z,8.70
2019-03-31T06:45:50.337Z,8.70
2019-03-31T06:48:18.837Z,8.70
2019-03-31T06:50:47.406Z,8.70
2019-03-31T06:53:16.014Z,8.60
2019-03-31T06:55:44.599Z,8.60
2019-03-31T06:58:13.207Z,8.60
2019-03-31T07:00:44.286Z,8.60
2019-03-31T07:03:15.462Z,8.60
2019-03-31T07:05:44.296Z,8.60
2019-03-31T07:08:12.864Z,8.60
2019-03-31T07:10:44.802Z,8.60
2019-03-31T07:13:14.690Z,8.60
2019-03-31T07:15:43.221Z,8.60
2019-03-31T07:18:11.842Z,8.60
2019-03-31T07:20:42.125Z,8.60
2019-03-31T07:23:10.740Z,8.60
2019-03-31T07:25:40.783Z,8.60
2019-03-31T07:28:09.423Z,8.60
2019-03-31T07:30:38.014Z,8.60
2019-03-31T07:33:08.388Z,8.60
2019-03-31T07:35:38.920Z,8.70
2019-03-31T07:38:07.226Z,8.60
2019-03-31T07:40:35.737Z,8.60
2019-03-31T07:43:04.712Z,8.60
2019-03-31T07:45:33.266Z,8.60
2019-03-31T07:48:01.872Z,8.60
2019-03-31T07:50:30.470Z,8.60
2019-03-31T07:52:58.987Z,8.60
2019-03-31T07:55:27.742Z,8.60
2019-03-31T07:57:56.406Z,8.60
2019-03-31T08:00:28.334Z,8.60
2019-03-31T08:03:00.263Z,8.60
2019-03-31T08:05:33.445Z,8.60
2019-03-31T08:07:59.049Z,8.60
2019-03-31T08:10:29.224Z,8.60
2019-03-31T08:12:57.818Z,8.60
2019-03-31T08:15:26.633Z,8.50
2019-03-31T08:17:55.325Z,8.50
2019-03-31T08:20:26.282Z,8.50
2019-03-31T08:22:57.140Z,8.40
2019-03-31T08:25:25.447Z,8.40
2019-03-31T08:27:54.031Z,8.30
2019-03-31T08:30:22.813Z,8.20
2019-03-31T08:32:54.928Z,8.30
2019-03-31T08:35:23.644Z,8.20
2019-03-31T08:37:52.307Z,8.20
2019-03-31T08:40:21.031Z,8.20
2019-03-31T08:42:49.667Z,8.30
2019-03-31T08:45:18.467Z,8.30
2019-03-31T08:47:47.280Z,8.30
2019-03-31T08:50:16.061Z,8.30
2019-03-31T08:52:44.744Z,8.30
2019-03-31T08:55:13.909Z,8.30
2019-03-31T08:57:42.754Z,8.30
2019-03-31T09:00:15.189Z,8.30
2019-03-31T09:02:43.913Z,8.30
2019-03-31T09:05:12.869Z,8.40
2019-03-31T09:07:42.123Z,8.40
2019-03-31T09:10:12.560Z,8.40
2019-03-31T09:12:42.372Z,8.50
2019-03-31T09:15:12.305Z,8.50
2019-03-31T09:17:41.041Z,8.50
2019-03-31T09:20:10.567Z,8.50
2019-03-31T09:22:39.350Z,8.50
2019-03-31T09:25:08.248Z,8.50
2019-03-31T09:27:36.972Z,8.50
2019-03-31T09:30:14.027Z,8.50
2019-03-31T09:32:51.369Z,8.50
2019-03-31T09:35:23.035Z,8.50
2019-03-31T09:37:57.008Z,8.60
2019-03-31T09:40:25.161Z,8.60
2019-03-31T09:42:53.618Z,8.50
2019-03-31T09:45:22.320Z,8.50
2019-03-31T09:47:50.878Z,8.60
2019-03-31T09:50:21.325Z,8.60
2019-03-31T09:52:51.542Z,8.60
2019-03-31T09:55:24.718Z,8.60
2019-03-31T09:57:54.851Z,8.70
2019-03-31T10:00:49.665Z,8.70
2019-03-31T10:03:18.926Z,8.80
2019-03-31T10:05:48.428Z,8.80
2019-03-31T10:08:17.407Z,8.80
2019-03-31T10:10:46.171Z,8.90
2019-03-31T10:13:14.881Z,8.90
2019-03-31T10:15:43.544Z,8.90
2019-03-31T10:18:13.932Z,9.00
2019-03-31T10:20:42.758Z,9.10
2019-03-31T10:23:11.538Z,9.00
2019-03-31T10:25:40.396Z,9.00
2019-03-31T10:28:09.183Z,9.00
2019-03-31T10:30:39.984Z,9.10
2019-03-31T10:33:09.107Z,9.20
2019-03-31T10:35:38.039Z,9.40
2019-03-31T10:38:08.035Z,9.50
2019-03-31T10:40:37.038Z,9.50
2019-03-31T10:43:06.490Z,9.50
2019-03-31T10:45:35.258Z,9.60
2019-03-31T10:48:04.305Z,9.60
2019-03-31T10:50:35.555Z,9.70
2019-03-31T10:53:04.848Z,9.80
2019-03-31T10:55:38.482Z,10.00
2019-03-31T10:58:07.438Z,10.00
2019-03-31T11:00:37.979Z,10.10
2019-03-31T11:03:11.873Z,10.20
2019-03-31T11:08:30.987Z,10.20
2019-03-31T11:11:00.283Z,10.20
2019-03-31T11:13:28.978Z,10.50
2019-03-31T11:15:57.750Z,10.40
2019-03-31T11:18:26.638Z,10.30
2019-03-31T11:20:56.116Z,10.50
2019-03-31T11:23:26.356Z,10.50
2019-03-31T11:25:55.001Z,10.40
2019-03-31T11:28:23.515Z,10.40
2019-03-31T11:30:51.986Z,10.50
2019-03-31T11:33:20.453Z,10.60
2019-03-31T11:35:49.001Z,11.00
2019-03-31T11:38:17.600Z,11.00
2019-03-31T11:40:46.221Z,11.10
2019-03-31T11:43:14.909Z,11.00
2019-03-31T11:45:43.728Z,11.30
2019-03-31T11:48:12.299Z,11.50
2019-03-31T11:50:40.760Z,11.60
2019-03-31T11:53:09.231Z,11.50
2019-03-31T11:55:37.808Z,11.40
2019-03-31T11:58:06.366Z,11.80
2019-03-31T12:00:36.509Z,12.10
2019-03-31T12:03:05.064Z,11.90
2019-03-31T12:05:33.602Z,11.90
2019-03-31T12:08:02.077Z,11.90
2019-03-31T12:10:30.940Z,11.90
2019-03-31T12:12:59.442Z,11.70
2019-03-31T12:15:27.899Z,12.10
2019-03-31T12:17:56.361Z,12.40
2019-03-31T12:20:24.852Z,12.40
2019-03-31T12:22:53.578Z,12.60
2019-03-31T12:25:22.070Z,13.10
2019-03-31T12:27:50.542Z,12.30
2019-03-31T12:30:22.077Z,12.00
2019-03-31T12:32:50.565Z,12.20
2019-03-31T12:35:19.038Z,12.20
2019-03-31T12:37:47.727Z,12.50
2019-03-31T12:40:30.870Z,12.30
2019-03-31T12:42:59.696Z,12.50
2019-03-31T12:45:28.161Z,12.50
2019-03-31T12:48:02.355Z,12.10
2019-03-31T12:50:30.897Z,12.00
2019-03-31T12:52:59.381Z,12.30
2019-03-31T12:55:27.939Z,12.30
2019-03-31T12:57:56.384Z,12.30
2019-03-31T13:00:24.992Z,12.60
2019-03-31T13:02:53.535Z,12.60
2019-03-31T13:05:22.004Z,12.70
2019-03-31T13:07:56.492Z,12.60
2019-03-31T13:10:20.745Z,12.60
2019-03-31T13:12:49.592Z,12.70
2019-03-31T13:15:18.121Z,12.70
2019-03-31T13:17:46.586Z,12.90
2019-03-31T13:20:15.499Z,13.00
2019-03-31T13:22:45.827Z,13.10
2019-03-31T13:25:14.330Z,13.20
2019-03-31T13:27:42.831Z,13.10
2019-03-31T13:30:11.430Z,12.70
2019-03-31T13:32:39.895Z,12.70
2019-03-31T13:35:08.774Z,12.50
2019-03-31T13:37:37.695Z,12.70
2019-03-31T13:40:08.395Z,12.80
2019-03-31T13:42:36.941Z,12.70
2019-03-31T13:45:06.612Z,12.80
2019-03-31T13:47:35.090Z,12.70
2019-03-31T13:50:05.479Z,12.70
2019-03-31T13:52:34.023Z,12.70
2019-03-31T13:55:02.562Z,12.70
2019-03-31T13:57:31.996Z,12.80
2019-03-31T14:00:01.232Z,13.00
2019-03-31T14:02:29.702Z,13.00
2019-03-31T14:04:58.248Z,13.00
2019-03-31T14:07:26.703Z,13.10
2019-03-31T14:09:55.164Z,13.20
2019-03-31T14:12:23.641Z,13.50
2019-03-31T14:14:52.131Z,13.10
2019-03-31T14:17:24.303Z,12.90
2019-03-31T14:19:51.277Z,12.80
2019-03-31T14:22:19.731Z,12.80
2019-03-31T14:24:48.215Z,12.80
2019-03-31T14:27:16.678Z,13.10
2019-03-31T14:29:45.138Z,13.20
2019-03-31T14:32:13.626Z,13.30
2019-03-31T14:34:42.154Z,13.30
2019-03-31T14:37:10.618Z,13.20
2019-03-31T14:39:39.165Z,13.20
2019-03-31T14:42:07.635Z,13.10
2019-03-31T14:44:36.134Z,13.00
2019-03-31T14:47:07.445Z,13.10
2019-03-31T14:49:40.065Z,13.00
2019-03-31T14:52:08.606Z,13.10
2019-03-31T14:54:37.067Z,13.20
2019-03-31T14:57:05.644Z,13.10
2019-03-31T14:59:35.712Z,13.40
2019-03-31T15:02:17.104Z,13.40
2019-03-31T15:04:45.686Z,13.60
2019-03-31T15:07:14.229Z,13.30
2019-03-31T15:09:42.725Z,13.10
2019-03-31T15:12:11.198Z,13.20
2019-03-31T15:14:39.735Z,13.30
2019-03-31T15:17:08.192Z,13.40
2019-03-31T15:19:36.650Z,12.90
2019-03-31T15:22:05.145Z,13.00
2019-03-31T15:24:37.301Z,13.10
2019-03-31T15:27:05.761Z,12.90
2019-03-31T15:29:34.228Z,12.60
2019-03-31T15:32:04.296Z,12.60
2019-03-31T15:34:32.788Z,12.60
2019-03-31T15:37:01.820Z,12.50
2019-03-31T15:39:30.286Z,12.50
2019-03-31T15:41:59.069Z,12.40
2019-03-31T15:44:30.427Z,12.40
2019-03-31T15:46:58.908Z,12.40
2019-03-31T15:49:27.369Z,12.40
2019-03-31T15:51:55.836Z,12.40
2019-03-31T15:54:26.059Z,12.30
2019-03-31T15:56:57.460Z,12.30
2019-03-31T15:59:25.988Z,12.30
2019-03-31T16:01:54.697Z,12.20
2019-03-31T16:04:23.153Z,12.20
2019-03-31T16:06:51.620Z,12.20
2019-03-31T16:09:23.565Z,12.30
2019-03-31T16:11:53.835Z,12.30
2019-03-31T16:14:20.472Z,12.30
2019-03-31T16:16:49.002Z,12.20
2019-03-31T16:19:17.519Z,12.20
2019-03-31T16:21:45.978Z,12.20
2019-03-31T16:24:14.460Z,12.20
2019-03-31T16:26:42.930Z,12.20
2019-03-31T16:29:11.470Z,12.20
2019-03-31T16:31:40.004Z,12.20
2019-03-31T16:34:08.485Z,12.20
2019-03-31T16:36:36.952Z,12.10
2019-03-31T16:39:06.670Z,12.10
2019-03-31T16:41:35.157Z,12.10
2019-03-31T16:44:03.690Z,12.10
2019-03-31T16:46:32.185Z,12.10
2019-03-31T16:49:00.658Z,12.00
2019-03-31T16:51:29.188Z,12.00
2019-03-31T16:53:57.677Z,12.00
2019-03-31T16:56:26.213Z,11.90
2019-03-31T16:58:54.701Z,11.90
2019-03-31T17:01:23.222Z,11.90
2019-03-31T17:03:51.692Z,11.90
2019-03-31T17:06:20.159Z,11.80
2019-03-31T17:08:48.600Z,11.70
2019-03-31T17:11:17.068Z,11.80
2019-03-31T17:13:45.536Z,11.80
2019-03-31T17:16:15.587Z,11.70
2019-03-31T17:18:44.216Z,11.70
2019-03-31T17:21:12.674Z,11.60
2019-03-31T17:23:41.141Z,11.50
2019-03-31T17:26:09.612Z,11.40
2019-03-31T17:28:38.155Z,11.40
2019-03-31T17:31:08.423Z,11.40
2019-03-31T17:33:36.938Z,11.40
2019-03-31T17:36:05.454Z,11.40
2019-03-31T17:38:33.972Z,11.30
2019-03-31T17:41:02.503Z,11.20
2019-03-31T17:43:31.016Z,11.20
2019-03-31T17:45:59.620Z,11.10
2019-03-31T17:48:28.098Z,11.00
2019-03-31T17:50:56.565Z,11.00
2019-03-31T17:53:25.354Z,10.80
2019-03-31T17:55:53.907Z,10.90
2019-03-31T17:58:22.369Z,10.90
2019-03-31T18:00:50.894Z,10.80
2019-03-31T18:03:19.383Z,10.90
2019-03-31T18:05:47.853Z,10.80
2019-03-31T18:08:16.331Z,10.60
2019-03-31T18:10:45.070Z,10.60
2019-03-31T18:13:13.637Z,10.60
2019-03-31T18:15:42.159Z,10.50
2019-03-31T18:18:10.655Z,10.40
2019-03-31T18:20:39.125Z,10.30
2019-03-31T18:23:07.613Z,10.30
2019-03-31T18:25:36.206Z,10.20
2019-03-31T18:28:04.707Z,10.10
2019-03-31T18:30:33.176Z,10.20
2019-03-31T18:33:01.718Z,10.20
2019-03-31T18:35:30.178Z,10.20
2019-03-31T18:37:58.678Z,10.00
2019-03-31T18:40:34.768Z,10.00
2019-03-31T18:42:57.412Z,10.00
2019-03-31T18:45:25.973Z,10.00
2019-03-31T18:47:54.419Z,9.80
2019-03-31T18:50:22.859Z,9.90
2019-03-31T18:52:51.363Z,9.80
2019-03-31T18:55:21.771Z,9.80
2019-03-31T18:57:57.365Z,9.80
2019-03-31T19:00:43.360Z,9.70
2019-03-31T19:03:13.487Z,9.60
2019-03-31T19:05:49.493Z,9.50
2019-03-31T19:08:28.545Z,9.50
2019-03-31T19:11:01.801Z,9.60
2019-03-31T19:13:55.349Z,9.50
2019-03-31T19:16:28.430Z,9.50
2019-03-31T19:19:07.202Z,9.50
2019-03-31T19:21:37.390Z,9.50
2019-03-31T19:24:19.749Z,9.50
2019-03-31T19:27:06.019Z,9.30
2019-03-31T19:29:54.122Z,9.30
2019-03-31T19:32:33.097Z,9.30
2019-03-31T19:35:08.819Z,9.10
2019-03-31T19:37:56.910Z,9.20
2019-03-31T19:40:43.431Z,9.10
2019-03-31T19:43:22.425Z,9.20
2019-03-31T19:45:58.769Z,9.10
2019-03-31T19:48:35.023Z,9.10
2019-03-31T19:51:08.580Z,9.20
2019-03-31T19:53:38.673Z,9.10
2019-03-31T19:56:20.513Z,9.00
2019-03-31T19:59:06.848Z,9.10
2019-03-31T20:01:45.668Z,9.00
2019-03-31T20:04:30.821Z,9.00
2019-03-31T20:07:15.712Z,8.90
2019-03-31T20:09:51.853Z,9.00
2019-03-31T20:12:30.898Z,8.90
2019-03-31T20:15:13.013Z,8.80
2019-03-31T20:17:55.185Z,8.90
2019-03-31T20:20:40.568Z,8.80
2019-03-31T20:23:13.407Z,8.80
2019-03-31T20:25:43.505Z,8.70
2019-03-31T20:28:30.054Z,8.70
2019-03-31T20:31:16.255Z,8.60
2019-03-31T20:33:49.143Z,8.80
2019-03-31T20:36:24.660Z,8.60
2019-03-31T20:39:03.699Z,8.70
2019-03-31T20:41:36.738Z,8.70
2019-03-31T20:44:05.191Z,8.70
2019-03-31T20:46:33.675Z,8.60
2019-03-31T20:49:02.134Z,8.60
2019-03-31T20:51:30.681Z,8.50
2019-03-31T20:53:59.187Z,8.50
2019-03-31T20:56:27.660Z,8.50
2019-03-31T20:58:56.141Z,8.50
2019-03-31T21:01:24.581Z,8.40
2019-03-31T21:03:53.052Z,8.40
2019-03-31T21:06:21.513Z,8.40
2019-03-31T21:08:50.031Z,8.30
2019-03-31T21:11:18.496Z,8.30
2019-03-31T21:13:46.947Z,8.20
2019-03-31T21:16:15.408Z,8.10
2019-03-31T21:18:43.937Z,8.10
2019-03-31T21:21:12.398Z,8.00
2019-03-31T21:23:40.843Z,8.10
2019-03-31T21:26:09.303Z,8.10
2019-03-31T21:28:37.752Z,8.00
2019-03-31T21:31:06.219Z,7.90
2019-03-31T21:33:34.940Z,7.90
2019-03-31T21:36:03.420Z,7.80
2019-03-31T21:38:31.861Z,7.90
2019-03-31T21:41:00.315Z,7.80
2019-03-31T21:43:28.769Z,7.80
2019-03-31T21:45:57.220Z,7.70
2019-03-31T21:48:25.687Z,7.80
2019-03-31T21:50:54.153Z,7.80
2019-03-31T21:53:22.598Z,7.70
2019-03-31T21:55:51.056Z,7.70
2019-03-31T21:58:19.767Z,7.60
2019-03-31T22:00:54.974Z,7.60
2019-03-31T22:03:23.549Z,7.70
2019-03-31T22:05:51.995Z,7.60
2019-03-31T22:08:20.456Z,7.50
2019-03-31T22:10:48.908Z,7.50
2019-03-31T22:13:17.628Z,7.50
2019-03-31T22:15:46.072Z,7.50
2019-03-31T22:18:14.525Z,7.50
2019-03-31T22:20:42.985Z,7.50
2019-03-31T22:23:11.444Z,7.50
2019-03-31T22:25:39.917Z,7.50
2019-03-31T22:28:08.430Z,7.40
2019-03-31T22:30:36.961Z,7.30
2019-03-31T22:33:05.414Z,7.20
2019-03-31T22:35:33.931Z,7.30
2019-03-31T22:38:02.712Z,7.20
2019-03-31T22:40:31.162Z,7.20
2019-03-31T22:42:59.650Z,7.30
2019-03-31T22:45:28.154Z,7.20
2019-03-31T22:47:56.602Z,7.10
2019-03-31T22:50:25.059Z,7.10
2019-03-31T22:52:53.496Z,7.20
2019-03-31T22:55:21.955Z,7.10
2019-03-31T22:57:50.401Z,7.20
2019-03-31T23:00:20.920Z,7.20
2019-03-31T23:02:49.432Z,7.10
2019-03-31T23:05:17.880Z,7.10
2019-03-31T23:07:46.425Z,7.00
2019-03-31T23:10:14.994Z,7.00
2019-03-31T23:12:43.448Z,7.10
2019-03-31T23:15:12.124Z,7.00
2019-03-31T23:17:40.565Z,7.00
2019-03-31T23:20:09.164Z,6.90
2019-03-31T23:22:37.605Z,7.00
2019-03-31T23:25:06.994Z,6.90
2019-03-31T23:27:35.467Z,6.90
2019-03-31T23:30:07.848Z,6.80
2019-03-31T23:32:36.392Z,6.70
2019-03-31T23:35:06.933Z,6.80
2019-03-31T23:37:35.453Z,6.80
2019-03-31T23:40:05.012Z,6.70
2019-03-31T23:42:33.725Z,6.70
2019-03-31T23:45:02.449Z,6.60
2019-03-31T23:47:31.254Z,6.60
2019-03-31T23:49:59.695Z,6.60
2019-03-31T23:52:28.155Z,6.60
2019-03-31T23:54:56.612Z,6.60
2019-03-31T23:57:40.913Z,6.50
